sensor_id;sensor_type;location;lat;lon;timestamp;temperature;humidity
40516;DHT22;26216;53.724;9.898;2024-02-23T00:01:51;12.20;99.90
40516;DHT22;26216;53.724;9.898;2024-02-23T00:04:17;12.10;99.90
40516;DHT22;26216;53.724;9.898;2024-02-23T00:06:46;12.00;99.90
40516;DHT22;26216;53.724;9.898;2024-02-23T00:09:12;12.00;99.90
40516;DHT22;26216;53.724;9.898;2024-02-23T00:11:41;11.90;99.90
40516;DHT22;26216;53.724;9.898;2024-02-23T00:14:10;11.80;99.90
40516;DHT22;26216;53.724;9.898;2024-02-23T00:16:40;11.80;99.90
40516;DHT22;26216;53.724;9.898;2024-02-23T00:19:09;11.70;99.90
40516;DHT22;26216;53.724;9.898;2024-02-23T00:21:37;11.60;99.90
40516;DHT22;26216;53.724;9.898;2024-02-23T00:24:04;11.60;99.90
40516;DHT22;26216;53.724;9.898;2024-02-23T00:26:31;11.50;99.90
40516;DHT22;26216;53.724;9.898;2024-02-23T00:28:56;11.50;99.90
40516;DHT22;26216;53.724;9.898;2024-02-23T00:31:26;11.40;99.90
40516;DHT22;26216;53.724;9.898;2024-02-23T00:33:51;11.30;99.90
40516;DHT22;26216;53.724;9.898;2024-02-23T00:36:17;11.30;99.90
40516;DHT22;26216;53.724;9.898;2024-02-23T00:38:44;11.30;99.90
40516;DHT22;26216;53.724;9.898;2024-02-23T00:41:10;11.30;99.90
40516;DHT22;26216;53.724;9.898;2024-02-23T00:43:40;11.30;99.90
40516;DHT22;26216;53.724;9.898;2024-02-23T00:46:10;11.20;99.90
40516;DHT22;26216;53.724;9.898;2024-02-23T00:48:36;11.20;99.90
40516;DHT22;26216;53.724;9.898;2024-02-23T00:51:02;11.00;99.90
40516;DHT22;26216;53.724;9.898;2024-02-23T00:53:30;11.00;99.90
40516;DHT22;26216;53.724;9.898;2024-02-23T00:55:56;10.90;99.90
40516;DHT22;26216;53.724;9.898;2024-02-23T00:58:25;10.80;99.90
40516;DHT22;26216;53.724;9.898;2024-02-23T01:00:51;10.70;99.90
40516;DHT22;26216;53.724;9.898;2024-02-23T01:03:16;10.60;99.90
40516;DHT22;26216;53.724;9.898;2024-02-23T01:05:42;10.60;99.90
40516;DHT22;26216;53.724;9.898;2024-02-23T01:08:08;10.50;99.90
40516;DHT22;26216;53.724;9.898;2024-02-23T01:10:34;10.50;99.90
40516;DHT22;26216;53.724;9.898;2024-02-23T01:13:00;10.40;99.90
40516;DHT22;26216;53.724;9.898;2024-02-23T01:15:26;10.40;99.90
40516;DHT22;26216;53.724;9.898;2024-02-23T01:17:52;10.30;99.90
40516;DHT22;26216;53.724;9.898;2024-02-23T01:20:18;10.30;99.90
40516;DHT22;26216;53.724;9.898;2024-02-23T01:22:44;10.20;99.90
40516;DHT22;26216;53.724;9.898;2024-02-23T01:25:10;10.20;99.90
40516;DHT22;26216;53.724;9.898;2024-02-23T01:27:36;10.20;99.90
40516;DHT22;26216;53.724;9.898;2024-02-23T01:30:03;10.10;99.90
40516;DHT22;26216;53.724;9.898;2024-02-23T01:32:29;10.10;99.90
40516;DHT22;26216;53.724;9.898;2024-02-23T01:34:55;10.00;99.90
40516;DHT22;26216;53.724;9.898;2024-02-23T01:37:21;10.00;99.90
40516;DHT22;26216;53.724;9.898;2024-02-23T01:39:49;10.00;99.90
40516;DHT22;26216;53.724;9.898;2024-02-23T01:42:15;9.90;99.90
40516;DHT22;26216;53.724;9.898;2024-02-23T01:44:41;9.90;99.90
40516;DHT22;26216;53.724;9.898;2024-02-23T01:47:07;9.90;99.90
40516;DHT22;26216;53.724;9.898;2024-02-23T01:49:33;9.90;99.90
40516;DHT22;26216;53.724;9.898;2024-02-23T01:52:01;9.90;99.90
40516;DHT22;26216;53.724;9.898;2024-02-23T01:54:27;9.80;99.90
40516;DHT22;26216;53.724;9.898;2024-02-23T01:56:55;9.80;99.90
40516;DHT22;26216;53.724;9.898;2024-02-23T01:59:23;9.80;99.90
40516;DHT22;26216;53.724;9.898;2024-02-23T02:01:49;9.70;99.90
40516;DHT22;26216;53.724;9.898;2024-02-23T02:04:15;9.70;99.90
40516;DHT22;26216;53.724;9.898;2024-02-23T02:06:42;9.70;99.90
40516;DHT22;26216;53.724;9.898;2024-02-23T02:09:08;9.70;99.90
40516;DHT22;26216;53.724;9.898;2024-02-23T02:11:34;9.60;99.90
40516;DHT22;26216;53.724;9.898;2024-02-23T02:14:00;9.60;99.90
40516;DHT22;26216;53.724;9.898;2024-02-23T02:16:25;9.60;99.90
40516;DHT22;26216;53.724;9.898;2024-02-23T02:18:51;9.60;99.90
40516;DHT22;26216;53.724;9.898;2024-02-23T02:21:17;9.50;99.90
40516;DHT22;26216;53.724;9.898;2024-02-23T02:23:44;9.50;99.90
40516;DHT22;26216;53.724;9.898;2024-02-23T02:26:10;9.50;99.90
40516;DHT22;26216;53.724;9.898;2024-02-23T02:28:36;9.40;99.90
40516;DHT22;26216;53.724;9.898;2024-02-23T02:31:02;9.40;99.90
40516;DHT22;26216;53.724;9.898;2024-02-23T02:33:28;9.50;99.90
40516;DHT22;26216;53.724;9.898;2024-02-23T02:35:55;9.40;99.90
40516;DHT22;26216;53.724;9.898;2024-02-23T02:38:20;9.40;99.90
40516;DHT22;26216;53.724;9.898;2024-02-23T02:40:46;9.40;99.90
40516;DHT22;26216;53.724;9.898;2024-02-23T02:43:12;9.30;99.90
40516;DHT22;26216;53.724;9.898;2024-02-23T02:45:44;9.30;99.90
40516;DHT22;26216;53.724;9.898;2024-02-23T02:48:10;9.30;99.90
40516;DHT22;26216;53.724;9.898;2024-02-23T02:50:36;9.20;99.90
40516;DHT22;26216;53.724;9.898;2024-02-23T02:53:02;9.20;99.90
40516;DHT22;26216;53.724;9.898;2024-02-23T02:55:28;9.20;99.90
40516;DHT22;26216;53.724;9.898;2024-02-23T02:57:56;9.10;99.90
40516;DHT22;26216;53.724;9.898;2024-02-23T03:00:22;9.10;99.90
40516;DHT22;26216;53.724;9.898;2024-02-23T03:02:48;9.10;99.90
40516;DHT22;26216;53.724;9.898;2024-02-23T03:05:14;9.10;99.90
40516;DHT22;26216;53.724;9.898;2024-02-23T03:07:40;9.10;99.90
40516;DHT22;26216;53.724;9.898;2024-02-23T03:10:06;9.00;99.90
40516;DHT22;26216;53.724;9.898;2024-02-23T03:12:32;9.00;99.90
40516;DHT22;26216;53.724;9.898;2024-02-23T03:14:58;9.00;99.90
40516;DHT22;26216;53.724;9.898;2024-02-23T03:17:25;9.00;99.90
40516;DHT22;26216;53.724;9.898;2024-02-23T03:19:50;9.00;99.90
40516;DHT22;26216;53.724;9.898;2024-02-23T03:22:16;8.90;99.90
40516;DHT22;26216;53.724;9.898;2024-02-23T03:24:42;9.00;99.90
40516;DHT22;26216;53.724;9.898;2024-02-23T03:27:08;8.90;99.90
40516;DHT22;26216;53.724;9.898;2024-02-23T03:29:35;8.90;99.90
40516;DHT22;26216;53.724;9.898;2024-02-23T03:32:01;8.90;99.90
40516;DHT22;26216;53.724;9.898;2024-02-23T03:34:27;8.80;99.90
40516;DHT22;26216;53.724;9.898;2024-02-23T03:36:53;8.90;99.90
40516;DHT22;26216;53.724;9.898;2024-02-23T03:39:18;8.80;99.90
40516;DHT22;26216;53.724;9.898;2024-02-23T03:41:44;8.80;99.90
40516;DHT22;26216;53.724;9.898;2024-02-23T03:44:10;8.80;99.90
40516;DHT22;26216;53.724;9.898;2024-02-23T03:46:36;8.80;99.90
40516;DHT22;26216;53.724;9.898;2024-02-23T03:49:02;8.80;99.90
40516;DHT22;26216;53.724;9.898;2024-02-23T03:51:28;8.70;99.90
40516;DHT22;26216;53.724;9.898;2024-02-23T03:53:54;8.70;99.90
40516;DHT22;26216;53.724;9.898;2024-02-23T03:56:20;8.80;99.90
40516;DHT22;26216;53.724;9.898;2024-02-23T03:58:46;8.70;99.90
40516;DHT22;26216;53.724;9.898;2024-02-23T04:01:12;8.80;99.90
40516;DHT22;26216;53.724;9.898;2024-02-23T04:03:41;8.80;99.90
40516;DHT22;26216;53.724;9.898;2024-02-23T04:06:07;8.80;99.90
40516;DHT22;26216;53.724;9.898;2024-02-23T04:08:33;8.70;99.90
40516;DHT22;26216;53.724;9.898;2024-02-23T04:10:59;8.80;99.90
40516;DHT22;26216;53.724;9.898;2024-02-23T04:13:25;8.70;99.90
40516;DHT22;26216;53.724;9.898;2024-02-23T04:15:51;8.70;99.90
40516;DHT22;26216;53.724;9.898;2024-02-23T04:18:20;8.70;99.90
40516;DHT22;26216;53.724;9.898;2024-02-23T04:20:46;8.70;99.90
40516;DHT22;26216;53.724;9.898;2024-02-23T04:23:12;8.70;99.90
40516;DHT22;26216;53.724;9.898;2024-02-23T04:25:38;8.70;99.90
40516;DHT22;26216;53.724;9.898;2024-02-23T04:28:04;8.60;99.90
40516;DHT22;26216;53.724;9.898;2024-02-23T04:30:30;8.60;99.90
40516;DHT22;26216;53.724;9.898;2024-02-23T04:32:56;8.60;99.90
40516;DHT22;26216;53.724;9.898;2024-02-23T04:35:22;8.60;99.90
40516;DHT22;26216;53.724;9.898;2024-02-23T04:37:48;8.50;99.90
40516;DHT22;26216;53.724;9.898;2024-02-23T04:40:15;8.50;99.90
40516;DHT22;26216;53.724;9.898;2024-02-23T04:42:44;8.50;99.90
40516;DHT22;26216;53.724;9.898;2024-02-23T04:45:11;8.50;99.90
40516;DHT22;26216;53.724;9.898;2024-02-23T04:47:37;8.50;99.90
40516;DHT22;26216;53.724;9.898;2024-02-23T04:50:06;8.50;99.90
40516;DHT22;26216;53.724;9.898;2024-02-23T04:52:32;8.40;99.90
40516;DHT22;26216;53.724;9.898;2024-02-23T04:54:58;8.40;99.90
40516;DHT22;26216;53.724;9.898;2024-02-23T04:57:24;8.40;99.90
40516;DHT22;26216;53.724;9.898;2024-02-23T04:59:50;8.40;99.90
40516;DHT22;26216;53.724;9.898;2024-02-23T05:02:19;8.40;99.90
40516;DHT22;26216;53.724;9.898;2024-02-23T05:04:45;8.30;99.90
40516;DHT22;26216;53.724;9.898;2024-02-23T05:07:10;8.30;99.90
40516;DHT22;26216;53.724;9.898;2024-02-23T05:09:36;8.30;99.90
40516;DHT22;26216;53.724;9.898;2024-02-23T05:12:02;8.30;99.90
40516;DHT22;26216;53.724;9.898;2024-02-23T05:14:29;8.30;99.90
40516;DHT22;26216;53.724;9.898;2024-02-23T05:16:54;8.30;99.90
40516;DHT22;26216;53.724;9.898;2024-02-23T05:19:23;8.30;99.90
40516;DHT22;26216;53.724;9.898;2024-02-23T05:21:50;8.30;99.90
40516;DHT22;26216;53.724;9.898;2024-02-23T05:29:11;8.30;99.90
40516;DHT22;26216;53.724;9.898;2024-02-23T05:31:45;8.60;99.90
40516;DHT22;26216;53.724;9.898;2024-02-23T05:34:12;8.10;99.90
40516;DHT22;26216;53.724;9.898;2024-02-23T05:41:33;8.30;99.90
40516;DHT22;26216;53.724;9.898;2024-02-23T05:43:58;8.30;99.90
40516;DHT22;26216;53.724;9.898;2024-02-23T05:46:24;8.30;99.90
40516;DHT22;26216;53.724;9.898;2024-02-23T05:48:50;8.20;99.90
40516;DHT22;26216;53.724;9.898;2024-02-23T05:51:16;8.20;99.90
40516;DHT22;26216;53.724;9.898;2024-02-23T06:01:05;8.10;99.90
40516;DHT22;26216;53.724;9.898;2024-02-23T06:03:33;8.20;99.90
40516;DHT22;26216;53.724;9.898;2024-02-23T06:05:59;8.10;99.90
40516;DHT22;26216;53.724;9.898;2024-02-23T06:08:25;8.10;99.90
40516;DHT22;26216;53.724;9.898;2024-02-23T06:10:51;8.00;99.90
40516;DHT22;26216;53.724;9.898;2024-02-23T06:15:43;8.00;99.90
40516;DHT22;26216;53.724;9.898;2024-02-23T06:18:10;8.00;99.90
40516;DHT22;26216;53.724;9.898;2024-02-23T06:20:36;8.00;99.90
40516;DHT22;26216;53.724;9.898;2024-02-23T06:23:02;8.00;99.90
40516;DHT22;26216;53.724;9.898;2024-02-23T06:25:28;8.00;99.90
40516;DHT22;26216;53.724;9.898;2024-02-23T06:27:53;8.00;99.90
40516;DHT22;26216;53.724;9.898;2024-02-23T06:32:46;8.00;99.90
40516;DHT22;26216;53.724;9.898;2024-02-23T06:35:12;7.80;99.90
40516;DHT22;26216;53.724;9.898;2024-02-23T06:37:38;7.90;99.90
40516;DHT22;26216;53.724;9.898;2024-02-23T06:40:05;7.90;99.90
40516;DHT22;26216;53.724;9.898;2024-02-23T06:42:33;7.90;99.90
40516;DHT22;26216;53.724;9.898;2024-02-23T06:44:59;7.80;99.90
40516;DHT22;26216;53.724;9.898;2024-02-23T06:47:25;7.80;99.90
40516;DHT22;26216;53.724;9.898;2024-02-23T06:49:52;7.80;99.90
40516;DHT22;26216;53.724;9.898;2024-02-23T06:52:19;7.70;99.90
40516;DHT22;26216;53.724;9.898;2024-02-23T06:54:45;7.80;99.90
40516;DHT22;26216;53.724;9.898;2024-02-23T06:57:11;7.80;99.90
40516;DHT22;26216;53.724;9.898;2024-02-23T06:59:37;7.80;99.90
40516;DHT22;26216;53.724;9.898;2024-02-23T07:02:03;7.80;99.90
40516;DHT22;26216;53.724;9.898;2024-02-23T07:04:29;7.80;99.90
40516;DHT22;26216;53.724;9.898;2024-02-23T07:06:56;7.80;99.90
40516;DHT22;26216;53.724;9.898;2024-02-23T07:09:22;7.80;99.90
40516;DHT22;26216;53.724;9.898;2024-02-23T07:11:48;7.90;99.90
40516;DHT22;26216;53.724;9.898;2024-02-23T07:14:17;7.90;99.90
40516;DHT22;26216;53.724;9.898;2024-02-23T07:16:43;7.90;99.90
40516;DHT22;26216;53.724;9.898;2024-02-23T07:19:10;7.90;99.90
40516;DHT22;26216;53.724;9.898;2024-02-23T07:21:36;7.90;99.90
40516;DHT22;26216;53.724;9.898;2024-02-23T07:24:02;8.00;99.90
40516;DHT22;26216;53.724;9.898;2024-02-23T07:26:28;8.00;99.90
40516;DHT22;26216;53.724;9.898;2024-02-23T07:28:55;8.00;99.90
40516;DHT22;26216;53.724;9.898;2024-02-23T07:31:21;8.00;99.90
40516;DHT22;26216;53.724;9.898;2024-02-23T07:33:47;8.00;99.90
40516;DHT22;26216;53.724;9.898;2024-02-23T07:36:20;8.10;99.90
40516;DHT22;26216;53.724;9.898;2024-02-23T07:38:52;8.00;99.90
40516;DHT22;26216;53.724;9.898;2024-02-23T07:41:18;8.10;99.90
40516;DHT22;26216;53.724;9.898;2024-02-23T07:43:44;8.10;99.90
40516;DHT22;26216;53.724;9.898;2024-02-23T07:46:11;8.10;99.90
40516;DHT22;26216;53.724;9.898;2024-02-23T07:48:38;8.20;99.90
40516;DHT22;26216;53.724;9.898;2024-02-23T07:51:05;8.20;99.90
40516;DHT22;26216;53.724;9.898;2024-02-23T07:53:31;8.20;99.90
40516;DHT22;26216;53.724;9.898;2024-02-23T07:55:59;8.20;99.90
40516;DHT22;26216;53.724;9.898;2024-02-23T07:58:28;8.30;99.90
40516;DHT22;26216;53.724;9.898;2024-02-23T08:00:54;8.30;99.90
40516;DHT22;26216;53.724;9.898;2024-02-23T08:03:23;8.30;99.90
40516;DHT22;26216;53.724;9.898;2024-02-23T08:05:49;8.30;99.90
40516;DHT22;26216;53.724;9.898;2024-02-23T08:08:15;8.30;99.90
40516;DHT22;26216;53.724;9.898;2024-02-23T08:10:41;8.30;99.90
40516;DHT22;26216;53.724;9.898;2024-02-23T08:13:07;8.30;99.90
40516;DHT22;26216;53.724;9.898;2024-02-23T08:15:36;8.30;99.90
40516;DHT22;26216;53.724;9.898;2024-02-23T08:18:02;8.40;99.90
40516;DHT22;26216;53.724;9.898;2024-02-23T08:20:28;8.40;99.90
40516;DHT22;26216;53.724;9.898;2024-02-23T08:22:58;8.50;99.90
40516;DHT22;26216;53.724;9.898;2024-02-23T08:25:24;8.50;99.90
40516;DHT22;26216;53.724;9.898;2024-02-23T08:27:50;8.50;99.90
40516;DHT22;26216;53.724;9.898;2024-02-23T08:30:16;8.50;99.90
40516;DHT22;26216;53.724;9.898;2024-02-23T08:32:44;8.50;99.90
40516;DHT22;26216;53.724;9.898;2024-02-23T08:35:10;8.60;99.90
40516;DHT22;26216;53.724;9.898;2024-02-23T08:37:37;8.60;99.90
40516;DHT22;26216;53.724;9.898;2024-02-23T08:40:06;8.70;99.90
40516;DHT22;26216;53.724;9.898;2024-02-23T08:42:32;8.70;99.90
40516;DHT22;26216;53.724;9.898;2024-02-23T08:44:58;8.80;99.90
40516;DHT22;26216;53.724;9.898;2024-02-23T08:47:24;8.80;99.90
40516;DHT22;26216;53.724;9.898;2024-02-23T08:49:56;8.80;99.90
40516;DHT22;26216;53.724;9.898;2024-02-23T08:52:22;8.90;99.90
40516;DHT22;26216;53.724;9.898;2024-02-23T08:54:48;8.90;99.90
40516;DHT22;26216;53.724;9.898;2024-02-23T08:57:14;9.00;99.90
40516;DHT22;26216;53.724;9.898;2024-02-23T08:59:45;9.00;99.90
40516;DHT22;26216;53.724;9.898;2024-02-23T09:02:12;9.10;99.90
40516;DHT22;26216;53.724;9.898;2024-02-23T09:04:38;9.10;99.90
40516;DHT22;26216;53.724;9.898;2024-02-23T09:07:04;9.10;99.90
40516;DHT22;26216;53.724;9.898;2024-02-23T09:09:30;9.20;99.90
40516;DHT22;26216;53.724;9.898;2024-02-23T09:11:56;9.30;99.90
40516;DHT22;26216;53.724;9.898;2024-02-23T09:14:23;9.30;99.90
40516;DHT22;26216;53.724;9.898;2024-02-23T09:16:51;9.40;99.90
40516;DHT22;26216;53.724;9.898;2024-02-23T09:19:18;9.40;99.90
40516;DHT22;26216;53.724;9.898;2024-02-23T09:21:45;9.50;99.90
40516;DHT22;26216;53.724;9.898;2024-02-23T09:24:11;9.50;99.90
40516;DHT22;26216;53.724;9.898;2024-02-23T09:26:38;9.50;99.90
40516;DHT22;26216;53.724;9.898;2024-02-23T09:29:08;9.50;99.90
40516;DHT22;26216;53.724;9.898;2024-02-23T09:31:34;9.60;99.90
40516;DHT22;26216;53.724;9.898;2024-02-23T09:34:00;9.60;99.90
40516;DHT22;26216;53.724;9.898;2024-02-23T09:36:26;9.60;99.90
40516;DHT22;26216;53.724;9.898;2024-02-23T09:38:52;9.60;99.90
40516;DHT22;26216;53.724;9.898;2024-02-23T09:41:22;9.70;99.90
40516;DHT22;26216;53.724;9.898;2024-02-23T09:43:49;9.80;99.90
40516;DHT22;26216;53.724;9.898;2024-02-23T09:46:17;9.80;99.90
40516;DHT22;26216;53.724;9.898;2024-02-23T09:48:44;9.90;99.90
40516;DHT22;26216;53.724;9.898;2024-02-23T09:51:12;9.90;99.90
40516;DHT22;26216;53.724;9.898;2024-02-23T09:53:39;9.90;99.90
40516;DHT22;26216;53.724;9.898;2024-02-23T09:56:05;10.00;99.90
40516;DHT22;26216;53.724;9.898;2024-02-23T09:58:32;10.00;99.90
40516;DHT22;26216;53.724;9.898;2024-02-23T10:01:02;10.10;99.90
40516;DHT22;26216;53.724;9.898;2024-02-23T10:03:29;10.10;99.90
40516;DHT22;26216;53.724;9.898;2024-02-23T10:05:58;10.20;99.90
40516;DHT22;26216;53.724;9.898;2024-02-23T10:08:30;10.30;99.90
40516;DHT22;26216;53.724;9.898;2024-02-23T10:10:56;10.30;99.90
40516;DHT22;26216;53.724;9.898;2024-02-23T10:13:23;10.30;99.90
40516;DHT22;26216;53.724;9.898;2024-02-23T10:15:55;10.30;99.90
40516;DHT22;26216;53.724;9.898;2024-02-23T10:18:22;10.40;99.90
40516;DHT22;26216;53.724;9.898;2024-02-23T10:20:49;10.40;99.90
40516;DHT22;26216;53.724;9.898;2024-02-23T10:23:16;10.40;99.90
40516;DHT22;26216;53.724;9.898;2024-02-23T10:25:42;10.50;99.90
40516;DHT22;26216;53.724;9.898;2024-02-23T10:28:08;10.50;99.90
40516;DHT22;26216;53.724;9.898;2024-02-23T10:30:36;10.60;99.90
40516;DHT22;26216;53.724;9.898;2024-02-23T10:33:05;10.60;99.90
40516;DHT22;26216;53.724;9.898;2024-02-23T10:35:32;10.70;99.90
40516;DHT22;26216;53.724;9.898;2024-02-23T10:38:01;10.70;99.90
40516;DHT22;26216;53.724;9.898;2024-02-23T10:40:30;10.70;99.90
40516;DHT22;26216;53.724;9.898;2024-02-23T10:43:03;10.70;99.90
40516;DHT22;26216;53.724;9.898;2024-02-23T10:45:30;10.80;99.90
40516;DHT22;26216;53.724;9.898;2024-02-23T10:47:57;10.80;99.90
40516;DHT22;26216;53.724;9.898;2024-02-23T10:50:24;10.70;99.90
40516;DHT22;26216;53.724;9.898;2024-02-23T10:52:52;10.80;99.90
40516;DHT22;26216;53.724;9.898;2024-02-23T10:55:19;10.80;99.90
40516;DHT22;26216;53.724;9.898;2024-02-23T10:57:48;10.80;99.90
40516;DHT22;26216;53.724;9.898;2024-02-23T11:00:16;10.80;99.90
40516;DHT22;26216;53.724;9.898;2024-02-23T11:02:51;10.80;99.90
40516;DHT22;26216;53.724;9.898;2024-02-23T11:05:18;10.90;99.90
40516;DHT22;26216;53.724;9.898;2024-02-23T11:07:48;10.90;99.90
40516;DHT22;26216;53.724;9.898;2024-02-23T11:10:18;10.90;99.90
40516;DHT22;26216;53.724;9.898;2024-02-23T11:12:57;11.00;99.90
40516;DHT22;26216;53.724;9.898;2024-02-23T11:15:29;11.00;99.90
40516;DHT22;26216;53.724;9.898;2024-02-23T11:17:55;11.00;99.90
40516;DHT22;26216;53.724;9.898;2024-02-23T11:20:22;11.10;99.90
40516;DHT22;26216;53.724;9.898;2024-02-23T11:22:52;11.10;99.90
40516;DHT22;26216;53.724;9.898;2024-02-23T11:25:26;11.20;99.90
40516;DHT22;26216;53.724;9.898;2024-02-23T11:27:53;11.20;99.90
40516;DHT22;26216;53.724;9.898;2024-02-23T11:30:19;11.20;99.90
40516;DHT22;26216;53.724;9.898;2024-02-23T11:32:47;11.20;99.90
40516;DHT22;26216;53.724;9.898;2024-02-23T11:35:15;11.20;99.90
40516;DHT22;26216;53.724;9.898;2024-02-23T11:37:49;11.30;99.90
40516;DHT22;26216;53.724;9.898;2024-02-23T11:40:19;11.30;99.90
40516;DHT22;26216;53.724;9.898;2024-02-23T11:42:46;11.30;99.90
40516;DHT22;26216;53.724;9.898;2024-02-23T11:45:13;11.30;99.90
40516;DHT22;26216;53.724;9.898;2024-02-23T11:47:39;11.30;99.90
40516;DHT22;26216;53.724;9.898;2024-02-23T11:50:13;11.30;99.90
40516;DHT22;26216;53.724;9.898;2024-02-23T11:52:40;11.30;99.90
40516;DHT22;26216;53.724;9.898;2024-02-23T11:55:07;11.30;99.90
40516;DHT22;26216;53.724;9.898;2024-02-23T11:57:38;11.30;99.90
40516;DHT22;26216;53.724;9.898;2024-02-23T12:00:05;11.40;99.90
40516;DHT22;26216;53.724;9.898;2024-02-23T12:02:35;11.40;99.90
40516;DHT22;26216;53.724;9.898;2024-02-23T12:05:01;11.40;99.90
40516;DHT22;26216;53.724;9.898;2024-02-23T12:07:32;11.40;99.90
40516;DHT22;26216;53.724;9.898;2024-02-23T12:09:59;11.50;99.90
40516;DHT22;26216;53.724;9.898;2024-02-23T12:12:26;11.50;99.90
40516;DHT22;26216;53.724;9.898;2024-02-23T12:14:53;11.60;99.90
40516;DHT22;26216;53.724;9.898;2024-02-23T12:17:19;11.60;99.90
40516;DHT22;26216;53.724;9.898;2024-02-23T12:19:47;11.70;99.90
40516;DHT22;26216;53.724;9.898;2024-02-23T12:22:15;11.70;99.90
40516;DHT22;26216;53.724;9.898;2024-02-23T12:24:41;11.70;99.90
40516;DHT22;26216;53.724;9.898;2024-02-23T12:27:08;11.70;99.90
40516;DHT22;26216;53.724;9.898;2024-02-23T12:29:36;11.70;99.90
40516;DHT22;26216;53.724;9.898;2024-02-23T12:32:07;11.70;99.90
40516;DHT22;26216;53.724;9.898;2024-02-23T12:34:33;11.70;99.90
40516;DHT22;26216;53.724;9.898;2024-02-23T12:37:02;11.80;99.90
40516;DHT22;26216;53.724;9.898;2024-02-23T12:39:31;11.70;99.90
40516;DHT22;26216;53.724;9.898;2024-02-23T12:41:57;11.80;99.90
40516;DHT22;26216;53.724;9.898;2024-02-23T12:44:24;11.80;99.90
40516;DHT22;26216;53.724;9.898;2024-02-23T12:46:50;11.80;99.90
40516;DHT22;26216;53.724;9.898;2024-02-23T12:49:16;11.80;99.90
40516;DHT22;26216;53.724;9.898;2024-02-23T12:51:42;11.80;99.90
40516;DHT22;26216;53.724;9.898;2024-02-23T12:54:09;11.80;99.90
40516;DHT22;26216;53.724;9.898;2024-02-23T12:56:35;11.90;99.90
40516;DHT22;26216;53.724;9.898;2024-02-23T12:59:04;11.90;99.90
40516;DHT22;26216;53.724;9.898;2024-02-23T13:01:30;11.90;99.90
40516;DHT22;26216;53.724;9.898;2024-02-23T13:04:00;11.90;99.90
40516;DHT22;26216;53.724;9.898;2024-02-23T13:06:26;11.90;99.90
40516;DHT22;26216;53.724;9.898;2024-02-23T13:08:53;11.90;99.90
40516;DHT22;26216;53.724;9.898;2024-02-23T13:11:19;11.90;99.90
40516;DHT22;26216;53.724;9.898;2024-02-23T13:13:45;11.90;99.90
40516;DHT22;26216;53.724;9.898;2024-02-23T13:16:11;11.80;99.90
40516;DHT22;26216;53.724;9.898;2024-02-23T13:18:40;11.80;99.90
40516;DHT22;26216;53.724;9.898;2024-02-23T13:21:07;11.80;99.90
40516;DHT22;26216;53.724;9.898;2024-02-23T13:23:34;11.70;99.90
40516;DHT22;26216;53.724;9.898;2024-02-23T13:26:05;11.70;99.90
40516;DHT22;26216;53.724;9.898;2024-02-23T13:28:32;11.60;99.90
40516;DHT22;26216;53.724;9.898;2024-02-23T13:30:59;11.60;99.90
40516;DHT22;26216;53.724;9.898;2024-02-23T13:33:25;11.60;99.90
40516;DHT22;26216;53.724;9.898;2024-02-23T13:35:52;11.60;99.90
40516;DHT22;26216;53.724;9.898;2024-02-23T13:38:19;11.50;99.90
40516;DHT22;26216;53.724;9.898;2024-02-23T13:40:45;11.50;99.90
40516;DHT22;26216;53.724;9.898;2024-02-23T13:43:12;11.50;99.90
40516;DHT22;26216;53.724;9.898;2024-02-23T13:45:49;11.50;99.90
40516;DHT22;26216;53.724;9.898;2024-02-23T13:48:17;11.40;99.90
40516;DHT22;26216;53.724;9.898;2024-02-23T13:50:49;11.40;99.90
40516;DHT22;26216;53.724;9.898;2024-02-23T13:53:15;11.40;99.90
40516;DHT22;26216;53.724;9.898;2024-02-23T13:55:41;11.30;99.90
40516;DHT22;26216;53.724;9.898;2024-02-23T13:58:10;11.30;99.90
40516;DHT22;26216;53.724;9.898;2024-02-23T14:00:36;11.30;99.90
40516;DHT22;26216;53.724;9.898;2024-02-23T14:03:03;11.20;99.90
40516;DHT22;26216;53.724;9.898;2024-02-23T14:05:29;11.20;99.90
40516;DHT22;26216;53.724;9.898;2024-02-23T14:07:59;11.20;99.90
40516;DHT22;26216;53.724;9.898;2024-02-23T14:10:25;11.20;99.90
40516;DHT22;26216;53.724;9.898;2024-02-23T14:12:50;11.20;99.90
40516;DHT22;26216;53.724;9.898;2024-02-23T14:15:17;11.20;99.90
40516;DHT22;26216;53.724;9.898;2024-02-23T14:17:44;11.20;99.90
40516;DHT22;26216;53.724;9.898;2024-02-23T14:20:11;11.10;99.90
40516;DHT22;26216;53.724;9.898;2024-02-23T14:22:38;11.20;99.90
40516;DHT22;26216;53.724;9.898;2024-02-23T14:25:04;11.20;99.90
40516;DHT22;26216;53.724;9.898;2024-02-23T14:27:31;11.20;99.90
40516;DHT22;26216;53.724;9.898;2024-02-23T14:30:00;11.30;99.90
40516;DHT22;26216;53.724;9.898;2024-02-23T14:32:26;11.30;99.90
40516;DHT22;26216;53.724;9.898;2024-02-23T14:34:52;11.40;99.90
40516;DHT22;26216;53.724;9.898;2024-02-23T14:37:18;11.40;99.90
40516;DHT22;26216;53.724;9.898;2024-02-23T14:39:44;11.40;99.90
40516;DHT22;26216;53.724;9.898;2024-02-23T14:42:11;11.50;99.90
40516;DHT22;26216;53.724;9.898;2024-02-23T14:44:38;11.50;99.90
40516;DHT22;26216;53.724;9.898;2024-02-23T14:47:06;11.50;99.90
40516;DHT22;26216;53.724;9.898;2024-02-23T14:49:33;11.60;99.90
40516;DHT22;26216;53.724;9.898;2024-02-23T14:51:59;11.60;99.90
40516;DHT22;26216;53.724;9.898;2024-02-23T14:54:26;11.60;99.90
40516;DHT22;26216;53.724;9.898;2024-02-23T14:57:04;11.60;99.90
40516;DHT22;26216;53.724;9.898;2024-02-23T14:59:30;11.60;99.90
40516;DHT22;26216;53.724;9.898;2024-02-23T15:01:57;11.60;99.90
40516;DHT22;26216;53.724;9.898;2024-02-23T15:04:24;11.70;99.90
40516;DHT22;26216;53.724;9.898;2024-02-23T15:06:50;11.60;99.90
40516;DHT22;26216;53.724;9.898;2024-02-23T15:09:16;11.70;99.90
40516;DHT22;26216;53.724;9.898;2024-02-23T15:11:42;11.60;99.90
40516;DHT22;26216;53.724;9.898;2024-02-23T15:14:09;11.60;99.90
40516;DHT22;26216;53.724;9.898;2024-02-23T15:16:35;11.60;99.90
40516;DHT22;26216;53.724;9.898;2024-02-23T15:19:05;11.60;99.90
40516;DHT22;26216;53.724;9.898;2024-02-23T15:21:34;11.60;99.90
40516;DHT22;26216;53.724;9.898;2024-02-23T15:24:06;11.60;99.90
40516;DHT22;26216;53.724;9.898;2024-02-23T15:26:36;11.60;99.90
40516;DHT22;26216;53.724;9.898;2024-02-23T15:29:02;11.50;99.90
40516;DHT22;26216;53.724;9.898;2024-02-23T15:31:31;11.50;99.90
40516;DHT22;26216;53.724;9.898;2024-02-23T15:33:58;11.50;99.90
40516;DHT22;26216;53.724;9.898;2024-02-23T15:36:25;11.40;99.90
40516;DHT22;26216;53.724;9.898;2024-02-23T15:38:52;11.40;99.90
40516;DHT22;26216;53.724;9.898;2024-02-23T15:41:19;11.30;99.90
40516;DHT22;26216;53.724;9.898;2024-02-23T15:43:45;11.40;99.90
40516;DHT22;26216;53.724;9.898;2024-02-23T15:46:13;11.30;99.90
40516;DHT22;26216;53.724;9.898;2024-02-23T15:48:39;11.30;99.90
40516;DHT22;26216;53.724;9.898;2024-02-23T15:51:05;11.30;99.90
40516;DHT22;26216;53.724;9.898;2024-02-23T15:53:32;11.30;99.90
40516;DHT22;26216;53.724;9.898;2024-02-23T15:55:59;11.20;99.90
40516;DHT22;26216;53.724;9.898;2024-02-23T15:58:25;11.30;99.90